sim
Sign-in with your pilot id or email,
or register
Callsign
Passwort

Schedule Details

Flight Number: RYR7128 (1)
Departure: Dublin Airport (EIDW) at 14:10
Arrival: Fuerteventura Airport (GCFV) at 18:35
Route: Ryanair Passenger Schedule. Enter filed route here before submitting Pirep.

Weather Information
Getting current METAR information for EIDW 160330Z 22011KT 190V250 9999 FEW016 SCT024 09/05 Q1014 NOSIG
Getting current METAR information for GCFV 160330Z AUTO 28005KT 9999 NCD 14/11 Q1017

Schedule Frequency

Route Map